createdAt,value
2023-05-12T00:00:56.947Z,16.47
2023-05-12T00:03:24.422Z,16.47
2023-05-12T00:05:51.483Z,18.43
2023-05-12T00:08:18.183Z,16.60
2023-05-12T00:10:45.010Z,20.40
2023-05-12T00:13:11.857Z,19.20
2023-05-12T00:15:38.633Z,17.93
2023-05-12T00:18:05.281Z,17.83
2023-05-12T00:20:31.924Z,17.20
2023-05-12T00:22:58.502Z,18.67
2023-05-12T00:25:25.092Z,21.40
2023-05-12T00:27:51.655Z,17.97
2023-05-12T00:30:18.534Z,16.87
2023-05-12T00:32:45.494Z,16.20
2023-05-12T00:35:12.102Z,24.37
2023-05-12T00:37:38.670Z,23.53
2023-05-12T00:40:05.843Z,23.13
2023-05-12T00:42:34.761Z,17.80
2023-05-12T00:45:01.918Z,18.60
2023-05-12T00:47:28.985Z,19.23
2023-05-12T00:49:55.765Z,14.60
2023-05-12T00:52:22.458Z,18.97
2023-05-12T00:54:50.033Z,17.60
2023-05-12T00:57:16.959Z,17.97
2023-05-12T00:59:43.553Z,20.63
2023-05-12T01:02:10.263Z,17.43
2023-05-12T01:04:39.503Z,16.33
2023-05-12T01:07:25.216Z,20.87
2023-05-12T01:09:58.748Z,20.50
2023-05-12T01:12:26.622Z,18.73
2023-05-12T01:14:54.888Z,22.20
2023-05-12T01:17:32.596Z,20.53
2023-05-12T01:20:02.553Z,18.93
2023-05-12T01:22:33.539Z,18.63
2023-05-12T01:25:03.721Z,17.00
2023-05-12T01:27:31.368Z,16.23
2023-05-12T01:30:03.347Z,17.97
2023-05-12T01:32:30.528Z,15.07
2023-05-12T01:34:57.360Z,16.80
2023-05-12T01:37:26.575Z,17.47
2023-05-12T01:39:54.157Z,17.23
2023-05-12T01:42:20.801Z,20.50
2023-05-12T01:44:47.351Z,17.60
2023-05-12T01:47:15.680Z,23.23
2023-05-12T01:49:42.331Z,18.73
2023-05-12T01:52:08.965Z,17.57
2023-05-12T01:54:35.992Z,17.23
2023-05-12T01:57:02.655Z,19.17
2023-05-12T01:59:29.275Z,15.63
2023-05-12T02:01:55.944Z,16.97
2023-05-12T02:04:22.730Z,16.77
2023-05-12T02:06:49.326Z,19.33
2023-05-12T02:09:16.073Z,16.10
2023-05-12T02:11:42.641Z,18.33
2023-05-12T02:14:09.214Z,12.70
2023-05-12T02:16:35.881Z,15.87
2023-05-12T02:19:02.548Z,19.87
2023-05-12T02:21:29.123Z,18.30
2023-05-12T02:23:56.306Z,18.53
2023-05-12T02:26:22.971Z,17.93
2023-05-12T02:28:49.570Z,16.17
2023-05-12T02:31:16.170Z,18.77
2023-05-12T02:33:43.291Z,16.73
2023-05-12T02:36:09.918Z,17.90
2023-05-12T02:38:36.546Z,20.90
2023-05-12T02:41:03.095Z,18.37
2023-05-12T02:43:29.698Z,21.67
2023-05-12T02:45:56.349Z,18.50
2023-05-12T02:48:23.067Z,17.23
2023-05-12T02:50:49.685Z,17.33
2023-05-12T02:53:16.239Z,22.70
2023-05-12T02:55:42.859Z,14.67
2023-05-12T02:58:10.354Z,19.37
2023-05-12T03:00:36.923Z,17.23
2023-05-12T03:03:03.648Z,17.00
2023-05-12T03:05:30.632Z,15.13
2023-05-12T03:07:57.479Z,15.07
2023-05-12T03:10:24.078Z,15.17
2023-05-12T03:12:50.750Z,15.10
2023-05-12T03:15:17.408Z,13.77
2023-05-12T03:17:44.045Z,14.13
2023-05-12T03:20:11.032Z,14.17
2023-05-12T03:22:37.974Z,15.97
2023-05-12T03:25:05.275Z,21.33
2023-05-12T03:27:35.118Z,18.67
2023-05-12T03:30:02.137Z,16.27
2023-05-12T03:32:28.782Z,18.43
2023-05-12T03:34:55.401Z,16.13
2023-05-12T03:37:22.300Z,16.80
2023-05-12T03:39:49.417Z,18.60
2023-05-12T03:42:16.185Z,18.33
2023-05-12T03:44:43.678Z,17.57
2023-05-12T03:47:10.358Z,18.00
2023-05-12T03:49:37.262Z,17.60
2023-05-12T03:52:04.071Z,20.17
2023-05-12T03:54:30.798Z,19.23
2023-05-12T03:56:57.379Z,15.57
2023-05-12T03:59:24.003Z,15.60
2023-05-12T04:01:51.512Z,16.07
2023-05-12T04:04:18.086Z,14.20
2023-05-12T04:06:44.956Z,16.57
2023-05-12T04:09:11.572Z,17.00
2023-05-12T04:11:38.213Z,15.43
2023-05-12T04:14:04.781Z,13.93
2023-05-12T04:16:31.408Z,16.17
2023-05-12T04:18:58.077Z,14.87
2023-05-12T04:21:24.782Z,12.53
2023-05-12T04:23:55.190Z,16.13
2023-05-12T04:26:21.970Z,15.53
2023-05-12T04:28:48.651Z,15.43
2023-05-12T04:31:15.309Z,14.50
2023-05-12T04:33:41.880Z,12.30
2023-05-12T04:36:09.035Z,13.10
2023-05-12T04:38:35.759Z,12.73
2023-05-12T04:41:02.351Z,11.10
2023-05-12T04:46:00.236Z,14.97
2023-05-12T04:48:28.635Z,14.27
2023-05-12T04:50:55.426Z,14.47
2023-05-12T04:53:22.056Z,14.47
2023-05-12T04:55:49.968Z,13.43
2023-05-12T04:58:16.756Z,15.60
2023-05-12T05:00:43.878Z,12.70
2023-05-12T05:03:10.810Z,11.90
2023-05-12T05:05:37.600Z,10.97
2023-05-12T05:08:04.181Z,13.17
2023-05-12T05:10:30.831Z,13.63
2023-05-12T05:12:57.431Z,15.10
2023-05-12T05:15:24.040Z,12.90
2023-05-12T05:17:50.768Z,11.53
2023-05-12T05:20:17.717Z,15.37
2023-05-12T05:22:44.412Z,13.07
2023-05-12T05:25:11.382Z,15.17
2023-05-12T05:27:38.839Z,14.03
2023-05-12T05:30:08.773Z,15.47
2023-05-12T05:32:36.735Z,14.77
2023-05-12T05:35:03.671Z,17.33
2023-05-12T05:37:30.270Z,18.83
2023-05-12T05:39:57.246Z,17.67
2023-05-12T05:42:23.962Z,16.37
2023-05-12T05:44:50.506Z,15.03
2023-05-12T05:47:17.163Z,17.47
2023-05-12T05:49:44.050Z,17.93
2023-05-12T05:52:10.679Z,15.90
2023-05-12T05:54:37.264Z,17.93
2023-05-12T05:57:03.975Z,21.23
2023-05-12T05:59:30.540Z,21.33
2023-05-12T06:01:57.910Z,18.33
2023-05-12T06:04:24.673Z,26.83
2023-05-12T06:06:51.322Z,25.87
2023-05-12T06:09:17.924Z,30.60
2023-05-12T06:11:44.551Z,30.23
2023-05-12T06:14:11.657Z,31.43
2023-05-12T06:16:38.332Z,29.87
2023-05-12T06:19:05.165Z,29.33
2023-05-12T06:21:33.281Z,28.17
2023-05-12T06:23:59.835Z,27.10
2023-05-12T06:26:26.399Z,24.63
2023-05-12T06:28:53.020Z,27.13
2023-05-12T06:31:19.881Z,25.30
2023-05-12T06:33:46.516Z,22.90
2023-05-12T06:36:13.124Z,22.43
2023-05-12T06:38:39.690Z,19.80
2023-05-12T06:41:06.483Z,19.70
2023-05-12T06:43:33.286Z,20.10
2023-05-12T06:45:59.858Z,18.77
2023-05-12T06:48:26.832Z,16.40
2023-05-12T06:50:53.887Z,19.60
2023-05-12T06:53:20.821Z,17.97
2023-05-12T06:55:47.937Z,17.77
2023-05-12T06:58:14.543Z,15.77
2023-05-12T07:00:41.088Z,15.73
2023-05-12T07:03:09.926Z,14.97
2023-05-12T07:05:37.031Z,14.27
2023-05-12T07:08:03.872Z,14.07
2023-05-12T07:10:30.743Z,13.40
2023-05-12T07:12:57.572Z,13.43
2023-05-12T07:15:24.271Z,13.27
2023-05-12T07:17:51.223Z,13.67
2023-05-12T07:20:17.898Z,11.87
2023-05-12T07:22:44.466Z,11.50
2023-05-12T07:25:11.506Z,12.77
2023-05-12T07:27:38.196Z,12.93
2023-05-12T07:30:08.803Z,12.03
2023-05-12T07:32:35.501Z,12.90
2023-05-12T07:35:03.508Z,10.63
2023-05-12T07:37:30.478Z,11.57
2023-05-12T07:39:57.266Z,10.27
2023-05-12T07:42:24.183Z,10.27
2023-05-12T07:44:50.778Z,9.80
2023-05-12T07:47:17.444Z,9.20
2023-05-12T07:49:44.108Z,8.03
2023-05-12T07:52:10.703Z,7.80
2023-05-12T07:54:37.500Z,7.60
2023-05-12T07:57:04.305Z,8.82
2023-05-12T07:59:30.870Z,7.25
2023-05-12T08:01:57.532Z,6.80
2023-05-12T08:04:24.401Z,6.82
2023-05-12T08:06:51.015Z,6.57
2023-05-12T08:09:17.581Z,6.53
2023-05-12T08:11:47.120Z,5.68
2023-05-12T08:14:14.808Z,6.07
2023-05-12T08:16:42.503Z,6.20
2023-05-12T08:19:09.208Z,5.75
2023-05-12T08:21:35.876Z,5.85
2023-05-12T08:24:02.573Z,5.13
2023-05-12T08:26:34.798Z,4.68
2023-05-12T08:29:01.657Z,5.43
2023-05-12T08:31:28.521Z,4.85
2023-05-12T08:36:26.125Z,4.95
2023-05-12T08:38:52.712Z,7.57
2023-05-12T08:41:30.632Z,4.85
2023-05-12T08:43:57.662Z,5.03
2023-05-12T08:46:25.727Z,4.75
2023-05-12T08:48:55.338Z,4.90
2023-05-12T08:51:24.095Z,5.53
2023-05-12T08:53:53.184Z,5.10
2023-05-12T08:58:51.991Z,4.50
2023-05-12T09:01:18.660Z,4.30
2023-05-12T09:03:45.570Z,4.75
2023-05-12T09:06:13.191Z,4.72
2023-05-12T09:08:40.852Z,6.32
2023-05-12T09:11:11.279Z,4.60
2023-05-12T09:13:49.597Z,4.88
2023-05-12T09:16:22.253Z,6.28
2023-05-12T09:18:58.058Z,5.03
2023-05-12T09:21:26.274Z,5.10
2023-05-12T09:24:01.060Z,5.85
2023-05-12T09:26:28.665Z,4.43
2023-05-12T09:29:06.766Z,4.85
2023-05-12T09:31:33.688Z,4.60
2023-05-12T09:34:02.226Z,3.75
2023-05-12T09:36:28.808Z,4.55
2023-05-12T09:39:05.501Z,4.75
2023-05-12T09:41:38.695Z,4.97
2023-05-12T09:44:06.736Z,6.28
2023-05-12T09:46:33.892Z,4.15
2023-05-12T09:49:02.503Z,5.35
2023-05-12T09:51:30.650Z,6.30
2023-05-12T09:53:58.173Z,5.43
2023-05-12T09:56:27.940Z,4.43
2023-05-12T09:58:56.961Z,6.40
2023-05-12T10:01:24.752Z,7.80
2023-05-12T10:03:53.191Z,4.85
2023-05-12T10:06:22.912Z,5.18
2023-05-12T10:09:03.350Z,3.17
2023-05-12T10:11:30.224Z,2.88
2023-05-12T10:13:58.849Z,2.70
2023-05-12T10:16:28.513Z,3.70
2023-05-12T10:18:56.386Z,3.47
2023-05-12T10:21:25.964Z,3.40
2023-05-12T10:23:56.850Z,3.15
2023-05-12T10:26:23.775Z,2.72
2023-05-12T10:28:52.075Z,2.58
2023-05-12T10:31:19.685Z,2.22
2023-05-12T10:34:00.265Z,2.47
2023-05-12T10:36:27.465Z,3.05
2023-05-12T10:38:54.776Z,3.03
2023-05-12T10:41:34.929Z,3.15
2023-05-12T10:44:01.688Z,3.10
2023-05-12T10:46:28.464Z,2.60
2023-05-12T10:48:58.164Z,3.45
2023-05-12T10:51:28.207Z,3.28
2023-05-12T10:54:02.401Z,2.75
2023-05-12T10:56:39.349Z,1.83
2023-05-12T10:59:15.053Z,2.55
2023-05-12T11:01:44.514Z,2.42
2023-05-12T11:04:13.459Z,2.88
2023-05-12T11:06:41.288Z,2.55
2023-05-12T11:09:09.046Z,1.90
2023-05-12T11:11:36.376Z,2.28
2023-05-12T11:14:03.244Z,3.15
2023-05-12T11:16:29.937Z,1.65
2023-05-12T11:19:06.714Z,1.83
2023-05-12T11:21:33.552Z,2.15
2023-05-12T11:24:03.413Z,2.67
2023-05-12T11:26:30.486Z,1.70
2023-05-12T11:28:58.244Z,1.98
2023-05-12T11:31:25.056Z,2.33
2023-05-12T11:34:11.900Z,4.13
2023-05-12T11:36:42.327Z,2.13
2023-05-12T11:39:22.923Z,2.03
2023-05-12T11:41:54.598Z,2.22
2023-05-12T11:44:26.316Z,2.08
2023-05-12T11:47:11.713Z,3.42
2023-05-12T11:49:53.158Z,1.90
2023-05-12T11:52:22.236Z,2.00
2023-05-12T11:54:50.722Z,2.10
2023-05-12T11:57:33.904Z,2.83
2023-05-12T12:00:09.603Z,1.98
2023-05-12T12:02:37.362Z,2.13
2023-05-12T12:05:05.449Z,2.17
2023-05-12T12:07:36.391Z,2.55
2023-05-12T12:10:13.384Z,2.88
2023-05-12T12:12:44.252Z,3.00
2023-05-12T12:15:11.911Z,2.40
2023-05-12T12:17:39.604Z,2.60
2023-05-12T12:20:07.765Z,3.72
2023-05-12T12:22:35.124Z,2.65
2023-05-12T12:25:02.830Z,2.30
2023-05-12T12:27:29.508Z,3.05
2023-05-12T12:29:56.147Z,2.63
2023-05-12T12:32:22.819Z,3.00
2023-05-12T12:34:49.601Z,2.67
2023-05-12T12:37:17.010Z,3.75
2023-05-12T12:39:43.645Z,3.22
2023-05-12T12:42:10.238Z,2.65
2023-05-12T12:44:36.843Z,2.85
2023-05-12T12:47:04.194Z,2.35
2023-05-12T12:49:30.926Z,2.42
2023-05-12T12:51:57.619Z,2.67
2023-05-12T12:54:26.928Z,3.03
2023-05-12T12:56:53.672Z,3.47
2023-05-12T12:59:20.221Z,4.95
2023-05-12T13:01:46.875Z,2.83
2023-05-12T13:04:13.455Z,4.18
2023-05-12T13:06:40.047Z,3.13
2023-05-12T13:09:06.657Z,3.22
2023-05-12T13:11:33.744Z,3.40
2023-05-12T13:14:02.181Z,4.40
2023-05-12T13:16:29.950Z,5.60
2023-05-12T13:18:56.662Z,4.68
2023-05-12T13:21:23.317Z,3.17
2023-05-12T13:23:49.919Z,3.83
2023-05-12T13:26:16.519Z,2.95
2023-05-12T13:28:43.109Z,3.05
2023-05-12T13:31:10.151Z,3.17
2023-05-12T13:33:36.727Z,3.47
2023-05-12T13:36:03.458Z,3.60
2023-05-12T13:38:30.779Z,3.03
2023-05-12T13:40:57.388Z,2.70
2023-05-12T13:43:23.957Z,3.58
2023-05-12T13:45:50.909Z,5.72
2023-05-12T13:48:17.613Z,2.40
2023-05-12T13:50:44.206Z,4.30
2023-05-12T13:53:12.481Z,2.58
2023-05-12T13:55:40.750Z,4.90
2023-05-12T13:58:07.709Z,2.83
2023-05-12T14:00:34.281Z,3.03
2023-05-12T14:03:01.565Z,2.75
2023-05-12T14:05:28.790Z,2.95
2023-05-12T14:07:55.593Z,2.63
2023-05-12T14:10:22.419Z,2.42
2023-05-12T14:12:49.271Z,2.15
2023-05-12T14:15:26.596Z,3.75
2023-05-12T14:17:55.947Z,2.47
2023-05-12T14:20:22.578Z,2.38
2023-05-12T14:22:49.295Z,2.78
2023-05-12T14:25:16.191Z,4.80
2023-05-12T14:27:42.897Z,4.18
2023-05-12T14:30:10.521Z,4.38
2023-05-12T14:32:37.144Z,3.00
2023-05-12T14:35:04.123Z,5.28
2023-05-12T14:37:31.381Z,3.13
2023-05-12T14:39:57.950Z,4.30
2023-05-12T14:42:26.282Z,2.72
2023-05-12T14:44:52.832Z,3.03
2023-05-12T14:47:19.398Z,3.00
2023-05-12T14:49:46.224Z,3.20
2023-05-12T14:52:12.815Z,3.22
2023-05-12T14:54:39.430Z,3.90
2023-05-12T14:57:06.184Z,3.10
2023-05-12T14:59:32.940Z,4.80
2023-05-12T15:02:00.044Z,3.25
2023-05-12T15:04:27.451Z,3.40
2023-05-12T15:06:54.065Z,7.80
2023-05-12T15:09:20.628Z,4.43
2023-05-12T15:11:48.017Z,3.28
2023-05-12T15:14:14.668Z,3.13
2023-05-12T15:16:41.795Z,3.72
2023-05-12T15:19:08.617Z,3.05
2023-05-12T15:21:36.788Z,5.15
2023-05-12T15:24:03.807Z,3.30
2023-05-12T15:26:34.140Z,3.30
2023-05-12T15:29:01.900Z,3.60
2023-05-12T15:31:29.423Z,5.05
2023-05-12T15:33:57.125Z,3.10
2023-05-12T15:36:23.728Z,2.90
2023-05-12T15:38:50.524Z,3.10
2023-05-12T15:41:17.138Z,3.40
2023-05-12T15:43:43.707Z,3.40
2023-05-12T15:46:11.694Z,3.53
2023-05-12T15:48:39.187Z,2.72
2023-05-12T15:51:06.735Z,3.03
2023-05-12T15:53:33.805Z,6.38
2023-05-12T15:56:04.643Z,6.28
2023-05-12T15:58:31.587Z,2.78
2023-05-12T16:00:58.833Z,3.25
2023-05-12T16:03:25.534Z,6.57
2023-05-12T16:05:52.499Z,2.93
2023-05-12T16:08:19.275Z,3.50
2023-05-12T16:10:45.885Z,2.60
2023-05-12T16:13:13.579Z,4.33
2023-05-12T16:15:40.215Z,3.50
2023-05-12T16:18:09.899Z,2.60
2023-05-12T16:20:37.615Z,2.88
2023-05-12T16:23:04.586Z,3.50
2023-05-12T16:25:31.183Z,2.80
2023-05-12T16:27:57.827Z,3.03
2023-05-12T16:30:24.929Z,2.80
2023-05-12T16:32:51.563Z,2.40
2023-05-12T16:35:18.330Z,3.20
2023-05-12T16:37:45.037Z,5.40
2023-05-12T16:40:12.058Z,3.13
2023-05-12T16:42:38.668Z,4.90
2023-05-12T16:45:06.312Z,5.93
2023-05-12T16:47:32.927Z,3.70
2023-05-12T16:49:59.860Z,4.17
2023-05-12T16:52:26.896Z,3.50
2023-05-12T16:54:55.962Z,3.40
2023-05-12T16:57:23.113Z,3.13
2023-05-12T16:59:49.919Z,3.57
2023-05-12T17:02:16.824Z,3.27
2023-05-12T17:04:43.511Z,2.40
2023-05-12T17:07:10.268Z,7.53
2023-05-12T17:09:37.092Z,3.37
2023-05-12T17:12:04.583Z,3.57
2023-05-12T17:14:31.488Z,3.13
2023-05-12T17:16:58.167Z,3.67
2023-05-12T17:19:24.844Z,2.80
2023-05-12T17:21:51.894Z,2.23
2023-05-12T17:24:18.553Z,3.60
2023-05-12T17:26:45.156Z,2.80
2023-05-12T17:29:12.148Z,2.23
2023-05-12T17:31:38.865Z,2.70
2023-05-12T17:34:05.803Z,2.70
2023-05-12T17:36:32.960Z,2.30
2023-05-12T17:39:00.031Z,3.17
2023-05-12T17:41:28.985Z,2.33
2023-05-12T17:43:56.450Z,3.57
2023-05-12T17:46:24.116Z,2.10
2023-05-12T17:48:50.912Z,2.80
2023-05-12T17:51:17.507Z,2.37
2023-05-12T17:53:44.213Z,3.30
2023-05-12T17:56:11.396Z,2.47
2023-05-12T17:58:38.053Z,2.97
2023-05-12T18:01:04.663Z,2.53
2023-05-12T18:03:31.322Z,2.40
2023-05-12T18:05:57.917Z,2.43
2023-05-12T18:08:24.544Z,2.40
2023-05-12T18:10:51.125Z,3.23
2023-05-12T18:13:17.740Z,2.17
2023-05-12T18:15:44.462Z,2.20
2023-05-12T18:18:11.370Z,2.50
2023-05-12T18:20:38.189Z,2.20
2023-05-12T18:23:04.836Z,2.47
2023-05-12T18:25:31.424Z,3.80
2023-05-12T18:27:58.083Z,3.20
2023-05-12T18:30:24.692Z,2.10
2023-05-12T18:32:51.391Z,3.67
2023-05-12T18:35:18.285Z,1.93
2023-05-12T18:37:45.054Z,2.37
2023-05-12T18:40:12.162Z,3.53
2023-05-12T18:42:38.841Z,4.57
2023-05-12T18:45:06.114Z,3.07
2023-05-12T18:47:33.355Z,2.40
2023-05-12T18:50:00.376Z,3.70
2023-05-12T18:52:27.006Z,3.70
2023-05-12T18:54:53.612Z,3.60
2023-05-12T18:57:20.856Z,3.37
2023-05-12T18:59:47.442Z,2.73
2023-05-12T19:02:14.017Z,2.37
2023-05-12T19:04:40.745Z,3.07
2023-05-12T19:07:09.449Z,2.30
2023-05-12T19:09:37.133Z,2.30
2023-05-12T19:12:05.722Z,2.60
2023-05-12T19:14:32.487Z,3.13
2023-05-12T19:16:59.032Z,2.23
2023-05-12T19:19:25.629Z,3.03
2023-05-12T19:21:52.848Z,2.50
2023-05-12T19:24:19.523Z,2.87
2023-05-12T19:26:46.168Z,2.50
2023-05-12T19:29:12.720Z,4.83
2023-05-12T19:31:39.378Z,2.50
2023-05-12T19:34:06.941Z,3.30
2023-05-12T19:36:33.726Z,4.43
2023-05-12T19:39:00.447Z,5.17
2023-05-12T19:41:28.251Z,3.93
2023-05-12T19:43:56.002Z,1.97
2023-05-12T19:46:22.985Z,2.33
2023-05-12T19:48:51.024Z,2.23
2023-05-12T19:51:17.670Z,3.63
2023-05-12T19:53:44.348Z,2.47
2023-05-12T19:56:11.067Z,3.47
2023-05-12T19:58:38.192Z,3.47
2023-05-12T20:01:04.951Z,5.27
2023-05-12T20:03:31.744Z,3.40
2023-05-12T20:05:58.749Z,3.40
2023-05-12T20:08:25.394Z,3.47
2023-05-12T20:10:52.243Z,2.80
2023-05-12T20:13:18.823Z,2.87
2023-05-12T20:15:45.485Z,2.93
2023-05-12T20:18:14.295Z,3.93
2023-05-12T20:20:42.276Z,4.13
2023-05-12T20:23:09.007Z,4.00
2023-05-12T20:25:36.215Z,2.60
2023-05-12T20:28:03.332Z,2.67
2023-05-12T20:30:30.329Z,2.87
2023-05-12T20:32:56.971Z,4.60
2023-05-12T20:35:23.855Z,3.77
2023-05-12T20:37:50.864Z,3.67
2023-05-12T20:40:17.597Z,3.00
2023-05-12T20:42:46.209Z,5.17
2023-05-12T20:45:13.774Z,4.23
2023-05-12T20:47:40.610Z,3.33
2023-05-12T20:50:08.638Z,3.20
2023-05-12T20:52:40.469Z,4.03
2023-05-12T20:55:08.125Z,3.93
2023-05-12T20:57:34.939Z,3.33
2023-05-12T21:00:01.637Z,3.40
2023-05-12T21:02:29.017Z,2.97
2023-05-12T21:04:56.188Z,2.63
2023-05-12T21:07:22.859Z,3.20
2023-05-12T21:09:49.712Z,5.10
2023-05-12T21:12:16.296Z,3.10
2023-05-12T21:14:44.903Z,3.13
2023-05-12T21:17:12.229Z,2.67
2023-05-12T21:19:39.865Z,3.07
2023-05-12T21:22:07.429Z,4.10
2023-05-12T21:24:34.069Z,2.70
2023-05-12T21:27:04.667Z,3.40
2023-05-12T21:29:32.357Z,6.67
2023-05-12T21:31:59.209Z,3.60
2023-05-12T21:34:26.150Z,3.17
2023-05-12T21:36:52.862Z,3.67
2023-05-12T21:39:19.413Z,3.63
2023-05-12T21:41:45.990Z,3.90
2023-05-12T21:44:12.637Z,3.20
2023-05-12T21:46:39.228Z,3.30
2023-05-12T21:49:06.050Z,3.23
2023-05-12T21:51:35.599Z,3.20
2023-05-12T21:54:02.186Z,4.27
2023-05-12T21:56:28.742Z,3.53
2023-05-12T21:58:55.692Z,3.67
2023-05-12T22:01:22.437Z,4.47
2023-05-12T22:03:49.556Z,3.67
2023-05-12T22:06:16.385Z,4.53
2023-05-12T22:08:43.262Z,4.00
2023-05-12T22:11:09.974Z,6.10
2023-05-12T22:13:36.703Z,3.77
2023-05-12T22:16:03.798Z,3.20
2023-05-12T22:18:30.533Z,5.83
2023-05-12T22:20:57.128Z,4.00
2023-05-12T22:23:23.946Z,4.23
2023-05-12T22:25:50.659Z,4.47
2023-05-12T22:28:18.128Z,3.43
2023-05-12T22:30:44.779Z,5.20
2023-05-12T22:33:11.405Z,6.40
2023-05-12T22:35:38.077Z,4.13
2023-05-12T22:38:04.711Z,6.83
2023-05-12T22:40:32.694Z,3.80
2023-05-12T22:42:59.260Z,4.23
2023-05-12T22:45:25.902Z,4.30
2023-05-12T22:47:52.663Z,3.93
2023-05-12T22:50:19.884Z,3.17
2023-05-12T22:52:46.727Z,3.97
2023-05-12T22:55:13.333Z,5.07
2023-05-12T22:57:40.810Z,3.70
2023-05-12T23:00:08.040Z,4.93
2023-05-12T23:02:35.200Z,3.97
2023-05-12T23:05:02.433Z,4.67
2023-05-12T23:07:29.145Z,4.23
2023-05-12T23:09:55.999Z,3.60
2023-05-12T23:12:22.570Z,5.37
2023-05-12T23:14:49.258Z,3.87
2023-05-12T23:17:15.839Z,4.37
2023-05-12T23:19:42.403Z,5.10
2023-05-12T23:22:08.979Z,4.63
2023-05-12T23:24:36.091Z,5.10
2023-05-12T23:27:02.690Z,7.73
2023-05-12T23:29:29.762Z,4.83
2023-05-12T23:31:58.602Z,3.67
2023-05-12T23:34:25.495Z,4.13
2023-05-12T23:36:52.066Z,4.17
2023-05-12T23:39:18.623Z,7.53
2023-05-12T23:41:45.506Z,4.77
2023-05-12T23:44:12.626Z,5.00
2023-05-12T23:46:39.420Z,3.97
2023-05-12T23:49:06.280Z,5.37
2023-05-12T23:51:33.155Z,4.77
2023-05-12T23:53:59.771Z,4.10
2023-05-12T23:56:26.483Z,5.20
2023-05-12T23:58:53.037Z,3.60
